createdAt,value
2019-04-13T00:02:21.283Z,98333.29
2019-04-13T00:05:21.645Z,98327.47
2019-04-13T00:07:55.854Z,98330.61
2019-04-13T00:10:47.417Z,98329.48
2019-04-13T00:13:19.380Z,98333.04
2019-04-13T00:15:51.329Z,98332.30
2019-04-13T00:18:23.315Z,98331.38
2019-04-13T00:20:55.399Z,98326.45
2019-04-13T00:23:27.505Z,98322.25
2019-04-13T00:25:59.450Z,98313.23
2019-04-13T00:28:31.409Z,98317.56
2019-04-13T00:31:03.384Z,98322.11
2019-04-13T00:33:35.336Z,98322.12
2019-04-13T00:36:07.288Z,98318.31
2019-04-13T00:38:39.386Z,98316.93
2019-04-13T00:41:11.352Z,98308.83
2019-04-13T00:43:43.318Z,98311.08
2019-04-13T00:46:15.272Z,98307.80
2019-04-13T00:48:47.225Z,98299.95
2019-04-13T00:51:19.157Z,98303.61
2019-04-13T00:53:51.114Z,98293.71
2019-04-13T00:56:23.053Z,98298.81
2019-04-13T00:58:55.062Z,98292.19
2019-04-13T01:01:27.023Z,98291.55
2019-04-13T01:03:58.985Z,98295.22
2019-04-13T01:06:30.936Z,98291.44
2019-04-13T01:09:07.298Z,98290.14
2019-04-13T01:11:39.241Z,98289.54
2019-04-13T01:14:11.210Z,98292.19
2019-04-13T01:16:43.156Z,98290.39
2019-04-13T01:19:15.120Z,98289.27
2019-04-13T01:21:47.046Z,98289.13
2019-04-13T01:24:19.000Z,98286.37
2019-04-13T01:26:50.937Z,98280.92
2019-04-13T01:29:22.906Z,98283.06
2019-04-13T01:31:54.852Z,98289.66
2019-04-13T01:34:26.805Z,98290.92
2019-04-13T01:36:58.785Z,98288.91
2019-04-13T01:39:30.751Z,98290.15
2019-04-13T01:42:02.759Z,98293.22
2019-04-13T01:44:34.776Z,98289.02
2019-04-13T01:47:06.668Z,98289.90
2019-04-13T01:49:38.643Z,98286.23
2019-04-13T01:52:10.583Z,98282.29
2019-04-13T01:54:42.527Z,98280.77
2019-04-13T01:57:14.463Z,98281.27
2019-04-13T01:59:46.440Z,98280.28
2019-04-13T02:02:26.763Z,98275.20
2019-04-13T02:05:18.382Z,98271.89
2019-04-13T02:08:00.607Z,98271.89
2019-04-13T02:10:35.685Z,98269.11
2019-04-13T02:13:07.616Z,98271.75
2019-04-13T02:15:39.577Z,98261.50
2019-04-13T02:18:11.536Z,98263.16
2019-04-13T02:20:43.516Z,98269.99
2019-04-13T02:23:15.446Z,98272.67
2019-04-13T02:25:47.412Z,98267.35
2019-04-13T02:28:19.352Z,98266.47
2019-04-13T02:30:51.310Z,98264.18
2019-04-13T02:33:23.247Z,98264.67
2019-04-13T02:35:55.238Z,98259.07
2019-04-13T02:38:27.195Z,98262.38
2019-04-13T02:40:59.369Z,98263.27
2019-04-13T02:43:31.309Z,98262.77
2019-04-13T02:46:03.288Z,98261.75
2019-04-13T02:48:35.204Z,98270.13
2019-04-13T02:51:07.159Z,98262.77
2019-04-13T02:53:39.125Z,98264.14
2019-04-13T02:56:11.126Z,98264.04
2019-04-13T02:58:43.050Z,98256.18
2019-04-13T03:01:15.029Z,98260.34
2019-04-13T03:03:47.352Z,98260.73
2019-04-13T03:06:19.328Z,98258.83
2019-04-13T03:08:51.256Z,98261.75
2019-04-13T03:11:23.232Z,98258.08
2019-04-13T03:13:55.181Z,98259.95
2019-04-13T03:16:49.642Z,98259.45
2019-04-13T03:19:28.344Z,98256.78
2019-04-13T03:22:00.290Z,98259.49
2019-04-13T03:24:32.262Z,98256.67
2019-04-13T03:27:04.223Z,98254.14
2019-04-13T03:29:36.170Z,98246.14
2019-04-13T03:32:08.143Z,98246.03
2019-04-13T03:34:40.073Z,98248.43
2019-04-13T03:37:12.063Z,98246.80
2019-04-13T03:39:44.022Z,98243.14
2019-04-13T03:42:16.015Z,98252.09
2019-04-13T03:44:47.949Z,98252.62
2019-04-13T03:47:19.892Z,98253.89
2019-04-13T03:49:51.857Z,98253.64
2019-04-13T03:52:23.792Z,98246.81
2019-04-13T03:54:55.755Z,98243.99
2019-04-13T03:57:27.737Z,98241.21
2019-04-13T03:59:59.689Z,98245.02
2019-04-13T04:02:31.634Z,98243.75
2019-04-13T04:05:04.384Z,98236.91
2019-04-13T04:07:36.852Z,98236.62
2019-04-13T04:10:09.023Z,98234.34
2019-04-13T04:12:40.964Z,98241.45
2019-04-13T04:15:12.956Z,98230.81
2019-04-13T04:17:44.891Z,98233.59
2019-04-13T04:20:16.858Z,98240.08
2019-04-13T04:22:48.792Z,98233.24
2019-04-13T04:25:20.734Z,98235.92
2019-04-13T04:27:52.693Z,98235.89
2019-04-13T04:30:24.704Z,98236.91
2019-04-13T04:32:56.637Z,98235.39
2019-04-13T04:35:28.614Z,98231.70
2019-04-13T04:38:00.614Z,98233.98
2019-04-13T04:40:35.155Z,98232.33
2019-04-13T04:43:06.428Z,98236.16
2019-04-13T04:45:38.374Z,98242.86
2019-04-13T04:48:10.319Z,98237.30
2019-04-13T04:50:42.288Z,98231.84
2019-04-13T04:53:14.230Z,98239.20
2019-04-13T04:55:46.201Z,98237.69
2019-04-13T04:58:18.141Z,98237.30
2019-04-13T05:00:50.110Z,98235.25
2019-04-13T05:03:22.058Z,98232.61
2019-04-13T05:05:54.018Z,98231.97
2019-04-13T05:08:25.962Z,98233.77
2019-04-13T05:10:57.919Z,98228.80
2019-04-13T05:13:29.883Z,98232.73
2019-04-13T05:16:01.829Z,98236.55
2019-04-13T05:18:33.766Z,98237.67
2019-04-13T05:21:05.768Z,98240.23
2019-04-13T05:23:37.730Z,98245.66
2019-04-13T05:26:09.693Z,98243.52
2019-04-13T05:28:41.643Z,98245.16
2019-04-13T05:31:13.604Z,98242.75
2019-04-13T05:33:45.577Z,98246.80
2019-04-13T05:36:17.547Z,98249.45
2019-04-13T05:38:49.507Z,98251.35
2019-04-13T05:41:21.568Z,98252.12
2019-04-13T05:43:53.501Z,98246.28
2019-04-13T05:46:25.467Z,98252.34
2019-04-13T05:48:57.411Z,98248.54
2019-04-13T05:51:29.443Z,98251.60
2019-04-13T05:54:01.389Z,98248.81
2019-04-13T05:56:33.373Z,98252.38
2019-04-13T05:59:05.320Z,98253.28
2019-04-13T06:01:37.310Z,98251.84
2019-04-13T06:04:09.249Z,98256.18
2019-04-13T06:06:41.338Z,98250.58
2019-04-13T06:09:13.325Z,98252.12
2019-04-13T06:11:45.615Z,98256.92
2019-04-13T06:14:17.670Z,98259.35
2019-04-13T06:16:49.628Z,98257.34
2019-04-13T06:19:21.599Z,98259.73
2019-04-13T06:21:53.547Z,98253.25
2019-04-13T06:24:25.517Z,98258.28
2019-04-13T06:26:57.463Z,98262.47
2019-04-13T06:29:29.455Z,98258.26
2019-04-13T06:32:26.700Z,98262.72
2019-04-13T06:35:27.089Z,98265.06
2019-04-13T06:37:59.121Z,98257.84
2019-04-13T06:40:31.085Z,98264.23
2019-04-13T06:43:03.067Z,98262.24
2019-04-13T06:45:35.116Z,98263.06
2019-04-13T06:48:07.088Z,98261.16
2019-04-13T06:50:39.059Z,98260.97
2019-04-13T06:53:11.039Z,98257.17
2019-04-13T06:55:43.041Z,98255.72
2019-04-13T06:58:15.792Z,98254.79
2019-04-13T07:00:48.625Z,98253.84
2019-04-13T07:03:20.683Z,98254.36
2019-04-13T07:05:52.666Z,98253.02
2019-04-13T07:08:38.119Z,98252.81
2019-04-13T07:11:13.905Z,98257.72
2019-04-13T07:13:54.697Z,98262.75
2019-04-13T07:16:43.041Z,98253.52
2019-04-13T07:19:13.258Z,98256.37
2019-04-13T07:21:45.259Z,98253.04
2019-04-13T07:24:18.640Z,98255.31
2019-04-13T07:26:50.879Z,98259.20
2019-04-13T07:29:24.420Z,98259.12
2019-04-13T07:31:56.518Z,98256.13
2019-04-13T07:34:28.520Z,98252.20
2019-04-13T07:37:00.557Z,98251.41
2019-04-13T07:39:32.598Z,98247.25
2019-04-13T07:42:05.461Z,98247.90
2019-04-13T07:44:43.227Z,98247.44
2019-04-13T07:47:32.383Z,98254.64
2019-04-13T07:50:24.337Z,98258.12
2019-04-13T07:52:57.465Z,98258.22
2019-04-13T07:55:29.508Z,98252.55
2019-04-13T07:58:01.512Z,98254.98
2019-04-13T08:00:34.821Z,98257.27
2019-04-13T08:03:06.795Z,98256.92
2019-04-13T08:05:38.808Z,98256.13
2019-04-13T08:08:10.764Z,98255.45
2019-04-13T08:10:42.758Z,98253.22
2019-04-13T08:13:14.756Z,98251.82
2019-04-13T08:15:46.740Z,98251.55
2019-04-13T08:18:39.325Z,98246.83
2019-04-13T08:21:12.262Z,98253.93
2019-04-13T08:23:54.147Z,98250.66
2019-04-13T08:26:26.113Z,98248.54
2019-04-13T08:28:58.155Z,98242.45
2019-04-13T08:31:30.158Z,98249.97
2019-04-13T08:34:02.123Z,98241.80
2019-04-13T08:36:34.157Z,98247.06
2019-04-13T08:39:07.364Z,98250.66
2019-04-13T08:41:39.393Z,98246.31
2019-04-13T08:44:11.355Z,98241.20
2019-04-13T08:46:43.344Z,98240.21
2019-04-13T08:49:15.301Z,98238.05
2019-04-13T08:51:47.413Z,98239.28
2019-04-13T08:54:19.419Z,98240.83
2019-04-13T08:56:51.401Z,98237.58
2019-04-13T08:59:24.690Z,98233.93
2019-04-13T09:01:56.856Z,98229.42
2019-04-13T09:04:28.897Z,98224.59
2019-04-13T09:07:00.862Z,98227.39
2019-04-13T09:09:35.633Z,98227.73
2019-04-13T09:12:08.622Z,98224.55
2019-04-13T09:14:40.691Z,98220.67
2019-04-13T09:17:16.962Z,98223.23
2019-04-13T09:20:12.031Z,98218.69
2019-04-13T09:23:02.303Z,98220.02
2019-04-13T09:25:34.429Z,98213.34
2019-04-13T09:28:06.398Z,98210.77
2019-04-13T09:30:39.733Z,98212.84
2019-04-13T09:33:11.741Z,98210.51
2019-04-13T09:35:43.786Z,98210.51
2019-04-13T09:38:15.763Z,98211.42
2019-04-13T09:40:47.776Z,98212.08
2019-04-13T09:43:24.017Z,98204.70
2019-04-13T09:45:56.061Z,98196.61
2019-04-13T09:48:28.109Z,98204.44
2019-04-13T09:51:00.211Z,98195.41
2019-04-13T09:53:32.244Z,98196.84
2019-04-13T09:56:04.540Z,98196.84
2019-04-13T09:58:36.554Z,98195.34
2019-04-13T10:01:08.539Z,98191.61
2019-04-13T10:03:40.556Z,98189.31
2019-04-13T10:06:12.558Z,98189.97
2019-04-13T10:08:55.321Z,98189.92
2019-04-13T10:11:22.470Z,98188.67
2019-04-13T10:14:04.647Z,98195.47
2019-04-13T10:16:43.231Z,98196.81
2019-04-13T10:19:15.232Z,98188.50
2019-04-13T10:21:49.984Z,98187.92
2019-04-13T10:24:35.562Z,98187.63
2019-04-13T10:27:07.708Z,98187.34
2019-04-13T10:29:39.698Z,98183.69
2019-04-13T10:32:11.738Z,98184.76
2019-04-13T10:34:43.734Z,98189.55
2019-04-13T10:37:15.822Z,98182.44
2019-04-13T10:39:47.951Z,98178.05
2019-04-13T10:42:19.997Z,98171.76
2019-04-13T10:45:06.009Z,98170.30
2019-04-13T10:47:49.660Z,98170.30
2019-04-13T10:50:43.669Z,98176.23
2019-04-13T10:53:15.693Z,98169.62
2019-04-13T10:55:47.717Z,98162.16
2019-04-13T10:58:19.800Z,98167.27
2019-04-13T11:00:51.825Z,98156.52
2019-04-13T11:03:23.841Z,98156.52
2019-04-13T11:05:55.832Z,98167.62
2019-04-13T11:08:27.870Z,98146.28
2019-04-13T11:10:59.835Z,98163.09
2019-04-13T11:13:31.849Z,98163.00
2019-04-13T11:16:03.953Z,98156.02
2019-04-13T11:18:36.951Z,98163.15
2019-04-13T11:21:09.695Z,98162.23
2019-04-13T11:23:45.906Z,98167.00
2019-04-13T11:26:15.636Z,98162.66
2019-04-13T11:28:47.616Z,98172.91
2019-04-13T11:31:22.764Z,98168.49
2019-04-13T11:33:53.564Z,98159.95
2019-04-13T11:36:25.500Z,98167.22
2019-04-13T11:38:57.521Z,98170.13
2019-04-13T11:41:49.071Z,98173.52
2019-04-13T11:44:52.754Z,98163.55
2019-04-13T11:47:30.263Z,98172.16
2019-04-13T11:50:02.448Z,98171.44
2019-04-13T11:52:34.407Z,98162.75
2019-04-13T11:55:06.603Z,98167.42
2019-04-13T11:57:38.556Z,98167.17
2019-04-13T12:00:30.445Z,98161.09
2019-04-13T12:03:15.247Z,98164.46
2019-04-13T12:05:47.905Z,98163.00
2019-04-13T12:08:21.134Z,98159.50
2019-04-13T12:11:19.111Z,98159.42
2019-04-13T12:14:00.309Z,98154.89
2019-04-13T12:16:49.250Z,98157.96
2019-04-13T12:19:27.144Z,98159.42
2019-04-13T12:22:21.587Z,98158.42
2019-04-13T12:24:53.608Z,98158.18
2019-04-13T12:27:25.619Z,98159.23
2019-04-13T12:29:57.649Z,98152.13
2019-04-13T12:32:31.081Z,98152.64
2019-04-13T12:35:07.398Z,98155.39
2019-04-13T12:37:37.282Z,98159.70
2019-04-13T12:40:34.876Z,98156.87
2019-04-13T12:43:06.977Z,98153.86
2019-04-13T12:45:38.997Z,98158.86
2019-04-13T12:48:10.992Z,98155.59
2019-04-13T12:50:43.004Z,98156.87
2019-04-13T12:53:15.084Z,98154.21
2019-04-13T12:55:47.179Z,98154.98
2019-04-13T12:58:22.782Z,98153.92
2019-04-13T13:01:02.602Z,98162.19
2019-04-13T13:03:36.645Z,98164.67
2019-04-13T13:06:09.116Z,98169.38
2019-04-13T13:08:41.159Z,98166.14
2019-04-13T13:11:13.297Z,98166.44
2019-04-13T13:13:46.741Z,98166.90
2019-04-13T13:16:18.762Z,98170.25
2019-04-13T13:18:50.763Z,98167.08
2019-04-13T13:21:22.861Z,98169.03
2019-04-13T13:23:54.889Z,98172.30
2019-04-13T13:26:26.892Z,98166.80
2019-04-13T13:28:58.860Z,98167.59
2019-04-13T13:31:30.873Z,98176.51
2019-04-13T13:34:02.854Z,98171.52
2019-04-13T13:36:34.976Z,98179.39
2019-04-13T13:39:06.941Z,98166.38
2019-04-13T13:41:39.113Z,98167.97
2019-04-13T13:46:58.238Z,98171.20
2019-04-13T13:49:30.212Z,98168.59
2019-04-13T13:52:05.686Z,98175.02
2019-04-13T13:54:36.142Z,98171.72
2019-04-13T13:57:08.185Z,98168.44
2019-04-13T13:59:40.204Z,98173.73
2019-04-13T14:02:21.463Z,98166.41
2019-04-13T14:04:53.524Z,98169.48
2019-04-13T14:07:25.525Z,98160.81
2019-04-13T14:10:15.852Z,98160.89
2019-04-13T14:12:47.909Z,98163.81
2019-04-13T14:15:19.933Z,98172.21
2019-04-13T14:17:55.212Z,98174.30
2019-04-13T14:20:27.476Z,98169.42
2019-04-13T14:22:59.709Z,98166.14
2019-04-13T14:25:31.740Z,98167.02
2019-04-13T14:28:03.738Z,98165.96
2019-04-13T14:30:35.782Z,98163.97
2019-04-13T14:33:07.797Z,98162.30
2019-04-13T14:35:39.919Z,98167.92
2019-04-13T14:38:13.982Z,98171.70
2019-04-13T14:40:55.335Z,98174.91
2019-04-13T14:43:36.161Z,98173.91
2019-04-13T14:46:09.298Z,98170.61
2019-04-13T14:48:41.370Z,98176.91
2019-04-13T14:51:13.578Z,98172.66
2019-04-13T14:53:46.394Z,98185.20
2019-04-13T14:56:19.160Z,98178.87
2019-04-13T14:58:51.216Z,98184.66
2019-04-13T15:01:23.271Z,98185.63
2019-04-13T15:03:55.261Z,98186.81
2019-04-13T15:06:27.288Z,98185.61
2019-04-13T15:08:59.309Z,98183.67
2019-04-13T15:11:31.317Z,98192.33
2019-04-13T15:14:04.257Z,98186.28
2019-04-13T15:16:36.319Z,98191.32
2019-04-13T15:19:26.301Z,98190.40
2019-04-13T15:21:50.183Z,98192.06
2019-04-13T15:24:23.248Z,98191.12
2019-04-13T15:26:56.305Z,98189.56
2019-04-13T15:29:31.508Z,98191.69
2019-04-13T15:32:02.334Z,98198.90
2019-04-13T15:34:36.429Z,98195.67
2019-04-13T15:37:09.857Z,98201.08
2019-04-13T15:39:45.559Z,98198.08
2019-04-13T15:42:21.911Z,98200.72
2019-04-13T15:44:52.795Z,98198.64
2019-04-13T15:47:27.145Z,98200.53
2019-04-13T15:49:58.899Z,98204.57
2019-04-13T15:52:31.159Z,98201.80
2019-04-13T15:55:04.384Z,98200.01
2019-04-13T15:57:37.260Z,98200.37
2019-04-13T16:00:09.404Z,98205.13
2019-04-13T16:02:42.715Z,98196.88
2019-04-13T16:05:14.888Z,98203.04
2019-04-13T16:07:46.899Z,98202.71
2019-04-13T16:10:44.358Z,98200.17
2019-04-13T16:13:21.544Z,98199.72
2019-04-13T16:16:01.095Z,98205.94
2019-04-13T16:18:33.174Z,98200.95
2019-04-13T16:21:06.347Z,98209.97
2019-04-13T16:23:39.015Z,98210.39
2019-04-13T16:26:11.037Z,98213.84
2019-04-13T16:29:10.056Z,98213.56
2019-04-13T16:31:55.530Z,98210.75
2019-04-13T16:34:46.640Z,98204.72
2019-04-13T16:37:23.370Z,98205.32
2019-04-13T16:39:55.860Z,98205.21
2019-04-13T16:42:31.227Z,98212.34
2019-04-13T16:45:34.123Z,98216.75
2019-04-13T16:48:25.309Z,98215.22
2019-04-13T16:51:16.209Z,98216.16
2019-04-13T16:54:06.198Z,98210.39
2019-04-13T16:56:45.856Z,98218.27
2019-04-13T16:59:40.709Z,98216.37
2019-04-13T17:02:35.971Z,98224.11
2019-04-13T17:05:11.397Z,98225.55
2019-04-13T17:07:44.715Z,98226.86
2019-04-13T17:10:17.136Z,98228.67
2019-04-13T17:12:49.394Z,98229.56
2019-04-13T17:15:21.496Z,98225.58
2019-04-13T17:17:53.699Z,98228.61
2019-04-13T17:20:45.603Z,98227.55
2019-04-13T17:23:46.342Z,98238.59
2019-04-13T17:26:33.538Z,98233.18
2019-04-13T17:29:18.734Z,98230.67
2019-04-13T17:31:59.919Z,98234.38
2019-04-13T17:34:36.302Z,98232.97
2019-04-13T17:37:09.338Z,98232.47
2019-04-13T17:39:41.419Z,98233.86
2019-04-13T17:42:40.675Z,98228.53
2019-04-13T17:45:28.208Z,98238.59
2019-04-13T17:48:13.140Z,98239.09
2019-04-13T17:51:03.907Z,98234.80
2019-04-13T17:53:45.227Z,98235.13
2019-04-13T17:56:19.818Z,98236.94
2019-04-13T17:59:03.267Z,98241.13
2019-04-13T18:01:53.809Z,98237.83
2019-04-13T18:04:45.746Z,98243.83
2019-04-13T18:07:37.420Z,98245.35
2019-04-13T18:10:21.001Z,98251.74
2019-04-13T18:13:11.986Z,98259.88
2019-04-13T18:16:04.291Z,98260.38
2019-04-13T18:18:39.668Z,98263.41
2019-04-13T18:21:11.624Z,98266.19
2019-04-13T18:23:44.026Z,98265.06
2019-04-13T18:26:16.356Z,98268.37
2019-04-13T18:28:48.432Z,98268.85
2019-04-13T18:31:20.638Z,98271.39
2019-04-13T18:33:53.398Z,98273.95
2019-04-13T18:36:25.725Z,98268.11
2019-04-13T18:38:58.323Z,98272.92
2019-04-13T18:41:30.916Z,98271.37
2019-04-13T18:44:03.382Z,98274.03
2019-04-13T18:46:36.269Z,98272.14
2019-04-13T18:49:09.525Z,98270.64
2019-04-13T18:51:42.050Z,98268.84
2019-04-13T18:54:14.145Z,98273.16
2019-04-13T18:56:46.180Z,98282.27
2019-04-13T18:59:19.370Z,98282.72
2019-04-13T19:01:51.671Z,98286.50
2019-04-13T19:04:23.704Z,98280.55
2019-04-13T19:06:55.711Z,98286.14
2019-04-13T19:09:27.782Z,98295.90
2019-04-13T19:11:59.814Z,98288.77
2019-04-13T19:14:31.860Z,98297.86
2019-04-13T19:17:03.980Z,98294.56
2019-04-13T19:19:36.020Z,98293.03
2019-04-13T19:22:08.089Z,98293.37
2019-04-13T19:24:40.172Z,98294.57
2019-04-13T19:27:12.215Z,98293.80
2019-04-13T19:29:44.306Z,98302.69
2019-04-13T19:32:16.384Z,98299.77
2019-04-13T19:34:48.484Z,98302.19
2019-04-13T19:37:20.498Z,98296.52
2019-04-13T19:39:52.574Z,98300.17
2019-04-13T19:42:24.608Z,98299.17
2019-04-13T19:44:56.696Z,98299.45
2019-04-13T19:47:28.693Z,98294.02
2019-04-13T19:50:00.853Z,98293.54
2019-04-13T19:52:58.635Z,98295.58
2019-04-13T19:55:30.697Z,98290.98
2019-04-13T19:58:02.680Z,98290.25
2019-04-13T20:00:38.805Z,98284.28
2019-04-13T20:03:10.784Z,98282.52
2019-04-13T20:05:42.823Z,98284.02
2019-04-13T20:08:14.865Z,98280.21
2019-04-13T20:10:46.996Z,98278.81
2019-04-13T20:13:30.763Z,98286.56
2019-04-13T20:15:53.136Z,98282.50
2019-04-13T20:18:26.204Z,98285.64
2019-04-13T20:20:58.303Z,98282.96
2019-04-13T20:23:30.277Z,98279.91
2019-04-13T20:26:03.342Z,98286.52
2019-04-13T20:28:35.470Z,98281.80
2019-04-13T20:31:07.485Z,98283.71
2019-04-13T20:33:39.503Z,98284.34
2019-04-13T20:36:16.396Z,98284.97
2019-04-13T20:38:45.578Z,98281.92
2019-04-13T20:41:21.537Z,98281.44
2019-04-13T20:44:02.299Z,98285.72
2019-04-13T20:46:27.815Z,98278.53
2019-04-13T20:48:59.910Z,98283.58
2019-04-13T20:51:32.169Z,98285.70
2019-04-13T20:54:04.216Z,98275.38
2019-04-13T20:56:36.258Z,98274.30
2019-04-13T20:59:08.563Z,98274.83
2019-04-13T21:01:40.907Z,98277.56
2019-04-13T21:04:13.024Z,98280.06
2019-04-13T21:06:45.724Z,98272.14
2019-04-13T21:09:18.354Z,98278.54
2019-04-13T21:11:50.556Z,98279.45
2019-04-13T21:14:29.080Z,98271.67
2019-04-13T21:16:56.463Z,98270.92
2019-04-13T21:19:28.663Z,98267.64
2019-04-13T21:22:00.797Z,98276.81
2019-04-13T21:24:33.082Z,98281.23
2019-04-13T21:27:05.326Z,98280.25
2019-04-13T21:29:37.426Z,98280.58
2019-04-13T21:32:09.558Z,98280.25
2019-04-13T21:34:42.942Z,98279.65
2019-04-13T21:37:15.979Z,98266.58
2019-04-13T21:39:48.382Z,98264.43
2019-04-13T21:42:20.412Z,98258.78
2019-04-13T21:44:53.040Z,98262.95
2019-04-13T21:47:25.173Z,98262.72
2019-04-13T21:50:04.354Z,98261.28
2019-04-13T21:52:50.080Z,98260.17
2019-04-13T21:55:36.048Z,98259.68
2019-04-13T21:58:08.045Z,98259.56
2019-04-13T22:01:08.601Z,98260.67
2019-04-13T22:03:40.713Z,98265.95
2019-04-13T22:06:12.710Z,98265.62
2019-04-13T22:08:44.944Z,98259.79
2019-04-13T22:11:17.062Z,98260.98
2019-04-13T22:13:49.086Z,98256.66
2019-04-13T22:16:21.236Z,98254.13
2019-04-13T22:18:53.909Z,98253.67
2019-04-13T22:21:26.247Z,98248.95
2019-04-13T22:23:58.594Z,98252.52
2019-04-13T22:26:30.680Z,98251.25
2019-04-13T22:29:07.558Z,98254.35
2019-04-13T22:32:14.547Z,98251.02
2019-04-13T22:35:06.555Z,98247.08
2019-04-13T22:37:38.625Z,98244.77
2019-04-13T22:40:10.847Z,98245.59
2019-04-13T22:42:42.914Z,98251.42
2019-04-13T22:45:16.482Z,98248.24
2019-04-13T22:47:54.144Z,98249.89
2019-04-13T22:50:55.074Z,98254.83
2019-04-13T22:53:44.017Z,98254.61
2019-04-13T22:56:22.903Z,98253.52
2019-04-13T22:58:55.786Z,98247.58
2019-04-13T23:01:29.736Z,98247.63
2019-04-13T23:04:01.743Z,98252.14
2019-04-13T23:06:33.730Z,98255.05
2019-04-13T23:09:06.477Z,98248.00
2019-04-13T23:11:38.935Z,98246.48
2019-04-13T23:14:11.179Z,98238.56
2019-04-13T23:16:43.426Z,98239.66
2019-04-13T23:19:15.504Z,98239.55
2019-04-13T23:21:48.416Z,98230.27
2019-04-13T23:24:21.314Z,98233.58
2019-04-13T23:26:53.744Z,98235.11
2019-04-13T23:29:25.883Z,98234.34
2019-04-13T23:31:58.695Z,98238.89
2019-04-13T23:34:31.156Z,98234.30
2019-04-13T23:37:04.039Z,98229.06
2019-04-13T23:39:36.664Z,98222.88
2019-04-13T23:42:09.153Z,98223.03
2019-04-13T23:44:42.057Z,98211.73
2019-04-13T23:47:14.399Z,98213.05
2019-04-13T23:49:47.142Z,98214.97
2019-04-13T23:52:19.668Z,98213.86
2019-04-13T23:54:52.352Z,98205.91
2019-04-13T23:57:31.453Z,98197.62
